createdAt,value
2018-03-29T00:01:16.178Z,99.90
2018-03-29T00:03:46.224Z,99.90
2018-03-29T00:06:15.607Z,99.90
2018-03-29T00:08:45.026Z,99.90
2018-03-29T00:11:14.309Z,99.80
2018-03-29T00:13:43.598Z,99.80
2018-03-29T00:16:13.034Z,99.80
2018-03-29T00:18:42.257Z,99.30
2018-03-29T00:21:11.495Z,99.40
2018-03-29T00:23:40.748Z,99.20
2018-03-29T00:26:10.221Z,99.10
2018-03-29T00:28:39.490Z,98.50
2018-03-29T00:31:08.761Z,99.10
2018-03-29T00:33:38.033Z,98.40
2018-03-29T00:36:07.282Z,98.50
2018-03-29T00:38:36.554Z,98.40
2018-03-29T00:41:05.806Z,98.10
2018-03-29T00:43:35.050Z,97.90
2018-03-29T00:46:04.337Z,98.50
2018-03-29T00:48:33.578Z,98.80
2018-03-29T00:51:02.828Z,98.80
2018-03-29T00:53:45.417Z,98.80
2018-03-29T00:56:14.860Z,98.80
2018-03-29T00:58:44.089Z,98.40
2018-03-29T01:01:13.341Z,98.90
2018-03-29T01:03:43.464Z,99.00
2018-03-29T01:06:12.694Z,99.10
2018-03-29T01:08:41.967Z,98.60
2018-03-29T01:11:11.465Z,99.40
2018-03-29T01:13:40.734Z,99.60
2018-03-29T01:16:09.989Z,98.60
2018-03-29T01:18:40.051Z,98.70
2018-03-29T01:21:09.288Z,98.70
2018-03-29T01:23:38.546Z,98.80
2018-03-29T01:26:07.796Z,98.50
2018-03-29T01:28:37.833Z,98.60
2018-03-29T01:31:07.096Z,98.60
2018-03-29T01:33:36.370Z,98.70
2018-03-29T01:36:05.613Z,98.40
2018-03-29T01:38:35.898Z,97.70
2018-03-29T01:41:05.141Z,97.60
2018-03-29T01:43:34.375Z,97.60
2018-03-29T01:46:03.619Z,98.20
2018-03-29T01:48:32.858Z,96.80
2018-03-29T01:51:02.122Z,96.70
2018-03-29T01:53:32.868Z,96.60
2018-03-29T01:56:02.131Z,96.70
2018-03-29T01:58:31.406Z,96.90
2018-03-29T02:01:00.726Z,97.30
2018-03-29T02:03:30.072Z,97.30
2018-03-29T02:05:59.306Z,97.20
2018-03-29T02:08:28.565Z,97.70
2018-03-29T02:10:57.842Z,97.00
2018-03-29T02:13:27.042Z,97.50
2018-03-29T02:15:56.306Z,97.00
2018-03-29T02:18:25.580Z,98.50
2018-03-29T02:20:55.581Z,97.80
2018-03-29T02:23:24.834Z,97.70
2018-03-29T02:25:54.071Z,98.40
2018-03-29T02:28:23.399Z,98.60
2018-03-29T02:30:53.523Z,98.50
2018-03-29T02:33:23.518Z,99.70
2018-03-29T02:35:52.753Z,99.60
2018-03-29T02:38:22.829Z,99.50
2018-03-29T02:40:52.335Z,99.50
2018-03-29T02:43:21.645Z,99.90
2018-03-29T02:45:51.718Z,99.70
2018-03-29T02:48:20.991Z,98.80
2018-03-29T02:50:50.262Z,98.30
2018-03-29T02:53:19.590Z,98.70
2018-03-29T02:55:48.825Z,97.30
2018-03-29T02:58:18.086Z,97.70
2018-03-29T03:00:47.314Z,98.10
2018-03-29T03:03:16.562Z,97.40
2018-03-29T03:05:45.801Z,96.50
2018-03-29T03:08:16.073Z,96.80
2018-03-29T03:10:45.335Z,96.80
2018-03-29T03:13:14.610Z,97.00
2018-03-29T03:15:43.848Z,97.20
2018-03-29T03:18:13.096Z,96.80
2018-03-29T03:20:42.448Z,96.90
2018-03-29T03:23:11.691Z,97.20
2018-03-29T03:25:40.945Z,98.00
2018-03-29T03:28:10.219Z,99.00
2018-03-29T03:30:40.248Z,98.00
2018-03-29T03:33:10.270Z,99.90
2018-03-29T03:35:39.515Z,99.90
2018-03-29T03:38:08.752Z,99.90
2018-03-29T03:40:38.022Z,99.90
2018-03-29T03:43:07.296Z,99.90
2018-03-29T03:45:36.560Z,99.90
2018-03-29T03:48:05.810Z,99.90
2018-03-29T03:50:35.085Z,99.90
2018-03-29T03:53:04.557Z,99.90
2018-03-29T03:55:33.805Z,99.90
2018-03-29T03:58:03.068Z,99.90
2018-03-29T04:00:32.299Z,99.90
2018-03-29T04:03:01.706Z,99.90
2018-03-29T04:05:30.947Z,99.90
2018-03-29T04:08:00.210Z,99.90
2018-03-29T04:10:29.448Z,99.90
2018-03-29T04:12:58.737Z,99.90
2018-03-29T04:15:27.999Z,99.90
2018-03-29T04:17:57.261Z,99.90
2018-03-29T04:20:26.558Z,99.90
2018-03-29T04:22:57.320Z,99.90
2018-03-29T04:25:26.554Z,99.90
2018-03-29T04:27:55.800Z,99.90
2018-03-29T04:30:25.108Z,99.90
2018-03-29T04:32:54.341Z,99.90
2018-03-29T04:35:23.600Z,99.90
2018-03-29T04:37:52.834Z,99.90
2018-03-29T04:40:22.235Z,99.90
2018-03-29T04:42:51.478Z,99.90
2018-03-29T04:45:20.739Z,99.90
2018-03-29T04:47:50.718Z,99.90
2018-03-29T04:50:19.975Z,99.90
2018-03-29T04:52:49.257Z,99.90
2018-03-29T04:55:19.278Z,99.90
2018-03-29T04:57:48.509Z,99.90
2018-03-29T05:00:17.763Z,99.90
2018-03-29T05:02:47.033Z,99.90
2018-03-29T05:05:16.268Z,99.90
2018-03-29T05:07:45.516Z,99.90
2018-03-29T05:10:14.803Z,99.90
2018-03-29T05:12:44.084Z,99.90
2018-03-29T05:15:13.875Z,99.90
2018-03-29T05:17:43.126Z,99.90
2018-03-29T05:20:12.394Z,99.90
2018-03-29T05:22:41.633Z,99.90
2018-03-29T05:25:10.880Z,99.90
2018-03-29T05:30:36.933Z,99.90
2018-03-29T05:33:06.256Z,99.90
2018-03-29T05:35:35.539Z,99.90
2018-03-29T05:38:04.754Z,99.90
2018-03-29T05:40:34.011Z,99.90
2018-03-29T05:43:03.254Z,99.90
2018-03-29T05:45:32.495Z,99.90
2018-03-29T05:48:01.965Z,99.90
2018-03-29T05:50:31.237Z,99.90
2018-03-29T05:53:01.253Z,99.90
2018-03-29T05:55:30.644Z,99.90
2018-03-29T05:57:59.944Z,99.90
2018-03-29T06:00:29.181Z,99.90
2018-03-29T06:02:58.435Z,99.90
2018-03-29T06:05:27.672Z,99.90
2018-03-29T06:07:57.682Z,99.90
2018-03-29T06:10:26.991Z,99.90
2018-03-29T06:12:56.228Z,99.90
2018-03-29T06:15:25.485Z,99.90
2018-03-29T06:18:00.641Z,99.90
2018-03-29T06:20:29.894Z,99.90
2018-03-29T06:23:00.639Z,99.90
2018-03-29T06:25:29.966Z,99.90
2018-03-29T06:27:59.230Z,99.90
2018-03-29T06:30:28.494Z,99.90
2018-03-29T06:32:57.721Z,99.90
2018-03-29T06:35:27.039Z,99.90
2018-03-29T06:37:56.312Z,99.90
2018-03-29T06:40:25.569Z,99.90
2018-03-29T06:42:55.029Z,99.90
2018-03-29T06:45:24.257Z,99.90
2018-03-29T06:47:54.274Z,99.90
2018-03-29T06:50:23.528Z,99.90
2018-03-29T06:52:52.790Z,99.90
2018-03-29T06:55:22.793Z,99.90
2018-03-29T06:57:52.069Z,99.90
2018-03-29T07:00:21.329Z,99.20
2018-03-29T07:02:50.628Z,99.30
2018-03-29T07:05:19.862Z,99.10
2018-03-29T07:07:49.138Z,99.30
2018-03-29T07:10:18.439Z,96.50
2018-03-29T07:12:47.686Z,95.40
2018-03-29T07:15:16.958Z,93.80
2018-03-29T07:17:46.231Z,90.90
2018-03-29T07:20:15.498Z,88.80
2018-03-29T07:22:45.514Z,88.50
2018-03-29T07:25:14.786Z,88.30
2018-03-29T07:27:44.242Z,82.90
2018-03-29T07:30:14.279Z,63.80
2018-03-29T07:32:43.546Z,63.60
2018-03-29T07:35:12.834Z,56.70
2018-03-29T07:37:42.096Z,50.10
2018-03-29T07:40:11.345Z,45.30
2018-03-29T07:42:41.575Z,41.10
2018-03-29T07:45:11.300Z,41.00
2018-03-29T07:47:40.554Z,39.20
2018-03-29T07:50:09.821Z,37.20
2018-03-29T07:52:39.159Z,37.60
2018-03-29T07:55:08.422Z,35.90
2018-03-29T07:57:37.713Z,34.00
2018-03-29T08:00:06.995Z,34.10
2018-03-29T08:02:37.635Z,33.40
2018-03-29T08:05:07.658Z,33.50
2018-03-29T08:07:37.038Z,33.40
2018-03-29T08:10:07.111Z,32.20
2018-03-29T08:12:36.361Z,32.10
2018-03-29T08:15:06.380Z,32.10
2018-03-29T08:17:37.031Z,31.00
2018-03-29T08:20:06.337Z,30.90
2018-03-29T08:22:36.349Z,31.70
2018-03-29T08:25:05.652Z,31.60
2018-03-29T08:27:34.901Z,33.40
2018-03-29T08:30:04.192Z,31.20
2018-03-29T08:32:33.440Z,31.00
2018-03-29T08:35:02.707Z,32.40
2018-03-29T08:37:31.978Z,32.90
2018-03-29T08:40:01.253Z,36.00
2018-03-29T08:42:30.745Z,40.10
2018-03-29T08:45:00.139Z,43.30
2018-03-29T08:47:29.429Z,46.30
2018-03-29T08:49:58.673Z,48.40
2018-03-29T08:52:28.024Z,46.20
2018-03-29T08:54:57.277Z,42.40
2018-03-29T08:57:26.735Z,39.70
2018-03-29T08:59:55.999Z,39.40
2018-03-29T09:02:25.337Z,40.10
2018-03-29T09:04:54.598Z,41.60
2018-03-29T09:07:23.857Z,39.80
2018-03-29T09:09:53.943Z,36.70
2018-03-29T09:12:23.938Z,37.90
2018-03-29T09:14:53.208Z,37.90
2018-03-29T09:17:23.237Z,36.90
2018-03-29T09:19:52.493Z,36.90
2018-03-29T09:22:21.770Z,36.70
2018-03-29T09:24:51.027Z,36.10
2018-03-29T09:27:21.912Z,32.90
2018-03-29T09:29:51.180Z,32.90
2018-03-29T09:32:20.580Z,32.50
2018-03-29T09:34:49.835Z,33.90
2018-03-29T09:37:19.110Z,32.60
2018-03-29T09:39:48.383Z,34.00
2018-03-29T09:42:18.395Z,34.70
2018-03-29T09:44:48.446Z,33.10
2018-03-29T09:47:17.725Z,33.00
2018-03-29T09:49:46.968Z,31.10
2018-03-29T09:52:16.241Z,30.20
2018-03-29T09:54:45.493Z,31.80
2018-03-29T09:57:14.749Z,31.10
2018-03-29T09:59:44.024Z,32.10
2018-03-29T10:02:19.058Z,28.00
2018-03-29T10:04:53.803Z,28.10
2018-03-29T10:07:24.868Z,29.20
2018-03-29T10:09:54.138Z,29.30
2018-03-29T10:12:23.394Z,31.20
2018-03-29T10:14:52.675Z,30.40
2018-03-29T10:17:21.954Z,31.40
2018-03-29T10:19:51.228Z,34.90
2018-03-29T10:22:21.255Z,38.10
2018-03-29T10:24:50.569Z,38.00
2018-03-29T10:27:19.985Z,40.20
2018-03-29T10:29:49.301Z,43.60
2018-03-29T10:32:18.572Z,44.10
2018-03-29T10:34:48.588Z,49.00
2018-03-29T10:37:17.877Z,49.10
2018-03-29T10:39:47.176Z,48.90
2018-03-29T10:42:16.450Z,47.30
2018-03-29T10:44:45.703Z,46.30
2018-03-29T10:47:14.963Z,44.70
2018-03-29T10:49:44.404Z,43.20
2018-03-29T10:52:13.669Z,41.50
2018-03-29T10:54:42.954Z,33.00
2018-03-29T10:57:12.218Z,32.10
2018-03-29T10:59:41.483Z,30.30
2018-03-29T11:02:11.512Z,26.80
2018-03-29T11:04:40.787Z,26.80
2018-03-29T11:07:10.053Z,26.90
2018-03-29T11:09:39.326Z,25.90
2018-03-29T11:12:08.629Z,25.90
2018-03-29T11:14:37.992Z,25.00
2018-03-29T11:17:07.281Z,26.70
2018-03-29T11:19:36.557Z,27.50
2018-03-29T11:22:05.883Z,28.50
2018-03-29T11:24:35.131Z,29.20
2018-03-29T11:27:04.438Z,28.90
2018-03-29T11:29:33.738Z,29.90
2018-03-29T11:32:02.989Z,31.60
2018-03-29T11:34:32.271Z,32.70
2018-03-29T11:37:01.531Z,34.80
2018-03-29T11:39:30.794Z,36.20
2018-03-29T11:42:00.064Z,38.10
2018-03-29T11:44:29.330Z,37.90
2018-03-29T11:46:59.342Z,40.90
2018-03-29T11:49:28.631Z,40.80
2018-03-29T11:51:57.881Z,43.20
2018-03-29T11:54:27.131Z,45.50
2018-03-29T11:56:56.613Z,48.90
2018-03-29T11:59:25.884Z,48.90
2018-03-29T12:01:55.167Z,49.30
2018-03-29T12:04:24.412Z,50.30
2018-03-29T12:06:53.683Z,48.30
2018-03-29T12:09:22.940Z,48.40
2018-03-29T12:11:53.079Z,45.20
2018-03-29T12:14:22.370Z,45.20
2018-03-29T12:16:51.641Z,46.40
2018-03-29T12:19:20.902Z,47.50
2018-03-29T12:21:50.172Z,46.90
2018-03-29T12:24:19.422Z,46.10
2018-03-29T12:26:48.681Z,46.00
2018-03-29T12:29:18.749Z,47.50
2018-03-29T12:31:47.993Z,47.40
2018-03-29T12:34:17.278Z,46.40
2018-03-29T12:36:46.536Z,48.80
2018-03-29T12:39:15.953Z,44.70
2018-03-29T12:41:45.214Z,45.80
2018-03-29T12:44:15.262Z,43.20
2018-03-29T12:46:44.509Z,43.10
2018-03-29T12:49:14.493Z,43.40
2018-03-29T12:51:43.773Z,43.50
2018-03-29T12:54:13.021Z,44.50
2018-03-29T12:57:00.030Z,43.70
2018-03-29T12:59:29.290Z,42.40
2018-03-29T13:01:58.689Z,44.30
2018-03-29T13:04:27.951Z,45.00
2018-03-29T13:06:57.224Z,44.80
2018-03-29T13:09:26.493Z,47.60
2018-03-29T13:11:55.966Z,47.10
2018-03-29T13:14:25.227Z,46.70
2018-03-29T13:16:54.482Z,46.50
2018-03-29T13:19:24.507Z,46.50
2018-03-29T13:21:53.882Z,46.50
2018-03-29T13:24:23.115Z,46.60
2018-03-29T13:26:52.366Z,45.50
2018-03-29T13:29:21.650Z,44.80
2018-03-29T13:31:50.910Z,45.00
2018-03-29T13:34:20.969Z,44.50
2018-03-29T13:36:50.225Z,44.50
2018-03-29T13:39:19.501Z,45.30
2018-03-29T13:41:48.940Z,44.10
2018-03-29T13:44:18.961Z,44.40
2018-03-29T13:46:48.234Z,44.40
2018-03-29T13:49:17.468Z,44.10
2018-03-29T13:51:46.800Z,45.20
2018-03-29T13:54:16.074Z,45.30
2018-03-29T13:56:45.365Z,45.60
2018-03-29T13:59:15.408Z,46.90
2018-03-29T14:01:45.231Z,46.90
2018-03-29T14:04:14.473Z,47.40
2018-03-29T14:06:43.739Z,48.10
2018-03-29T14:09:13.022Z,48.60
2018-03-29T14:11:42.260Z,49.50
2018-03-29T14:14:11.533Z,50.00
2018-03-29T14:16:40.816Z,50.60
2018-03-29T14:19:10.074Z,50.20
2018-03-29T14:21:39.333Z,50.30
2018-03-29T14:24:08.600Z,49.70
2018-03-29T14:26:37.857Z,50.40
2018-03-29T14:29:07.138Z,50.20
2018-03-29T14:31:36.416Z,51.10
2018-03-29T14:34:05.712Z,49.10
2018-03-29T14:36:35.007Z,47.30
2018-03-29T14:39:06.986Z,49.30
2018-03-29T14:41:36.329Z,49.10
2018-03-29T14:44:05.550Z,49.20
2018-03-29T14:46:34.796Z,48.90
2018-03-29T14:49:04.087Z,50.40
2018-03-29T14:51:34.153Z,51.60
2018-03-29T14:54:03.435Z,51.60
2018-03-29T14:56:32.828Z,51.00
2018-03-29T14:59:02.102Z,50.90
2018-03-29T15:01:32.411Z,50.90
2018-03-29T15:04:01.702Z,50.80
2018-03-29T15:06:31.046Z,50.90
2018-03-29T15:09:00.286Z,51.20
2018-03-29T15:11:29.563Z,51.90
2018-03-29T15:13:58.894Z,51.20
2018-03-29T15:16:28.090Z,52.00
2018-03-29T15:18:57.369Z,52.30
2018-03-29T15:21:26.625Z,52.90
2018-03-29T15:23:56.668Z,51.80
2018-03-29T15:26:25.973Z,51.80
2018-03-29T15:28:55.957Z,51.20
2018-03-29T15:31:25.280Z,51.20
2018-03-29T15:33:54.502Z,51.60
2018-03-29T15:36:23.757Z,52.50
2018-03-29T15:38:53.040Z,52.40
2018-03-29T15:41:22.321Z,53.80
2018-03-29T15:43:52.443Z,53.10
2018-03-29T15:46:21.683Z,54.10
2018-03-29T15:48:51.029Z,54.70
2018-03-29T15:51:21.073Z,54.10
2018-03-29T15:53:51.254Z,54.10
2018-03-29T15:56:20.507Z,53.90
2018-03-29T15:58:49.773Z,53.30
2018-03-29T16:01:19.019Z,53.50
2018-03-29T16:03:48.306Z,53.60
2018-03-29T16:06:17.570Z,54.10
2018-03-29T16:08:46.838Z,55.20
2018-03-29T16:11:16.889Z,56.00
2018-03-29T16:13:46.137Z,56.10
2018-03-29T16:16:15.451Z,57.30
2018-03-29T16:18:44.701Z,56.60
2018-03-29T16:21:14.072Z,57.60
2018-03-29T16:23:43.363Z,57.00
2018-03-29T16:26:12.627Z,57.30
2018-03-29T16:28:43.434Z,56.90
2018-03-29T16:31:12.720Z,56.90
2018-03-29T16:33:41.959Z,57.30
2018-03-29T16:36:11.225Z,57.70
2018-03-29T16:38:40.465Z,56.90
2018-03-29T16:41:09.741Z,57.30
2018-03-29T16:43:39.006Z,59.00
2018-03-29T16:46:08.407Z,58.30
2018-03-29T16:48:37.671Z,58.30
2018-03-29T16:51:07.037Z,58.80
2018-03-29T16:53:37.053Z,58.60
2018-03-29T16:56:06.343Z,58.60
2018-03-29T16:58:35.742Z,59.20
2018-03-29T17:01:05.764Z,60.60
2018-03-29T17:03:35.017Z,60.50
2018-03-29T17:06:04.275Z,62.10
2018-03-29T17:08:33.534Z,63.30
2018-03-29T17:11:02.833Z,65.50
2018-03-29T17:13:32.075Z,67.00
2018-03-29T17:16:01.338Z,67.70
2018-03-29T17:18:30.586Z,69.60
2018-03-29T17:21:00.607Z,71.20
2018-03-29T17:23:30.606Z,71.30
2018-03-29T17:25:59.996Z,72.20
2018-03-29T17:28:29.265Z,72.00
2018-03-29T17:30:58.496Z,72.60
2018-03-29T17:33:28.577Z,76.80
2018-03-29T17:35:57.839Z,76.70
2018-03-29T17:38:27.104Z,79.90
2018-03-29T17:40:56.953Z,81.70
2018-03-29T17:43:27.002Z,85.30
2018-03-29T17:45:56.257Z,85.20
2018-03-29T17:48:25.533Z,87.30
2018-03-29T17:50:54.783Z,90.90
2018-03-29T17:53:24.037Z,91.80
2018-03-29T17:55:53.449Z,91.20
2018-03-29T17:58:22.690Z,91.60
2018-03-29T18:00:51.972Z,92.80
2018-03-29T18:03:21.240Z,93.60
2018-03-29T18:05:51.365Z,93.00
2018-03-29T18:08:20.683Z,94.00
2018-03-29T18:10:49.941Z,93.60
2018-03-29T18:13:19.206Z,94.00
2018-03-29T18:15:50.196Z,94.80
2018-03-29T18:18:19.435Z,94.80
2018-03-29T18:20:48.658Z,95.80
2018-03-29T18:23:17.929Z,95.40
2018-03-29T18:25:48.734Z,95.70
2018-03-29T18:28:17.977Z,95.90
2018-03-29T18:30:47.986Z,96.30
2018-03-29T18:33:17.231Z,96.30
2018-03-29T18:35:46.486Z,96.70
2018-03-29T18:38:16.518Z,96.40
2018-03-29T18:40:45.741Z,96.40
2018-03-29T18:43:14.981Z,96.50
2018-03-29T18:45:44.225Z,96.30
2018-03-29T18:48:13.471Z,96.50
2018-03-29T18:50:42.727Z,96.60
2018-03-29T18:53:12.146Z,96.60
2018-03-29T18:55:41.374Z,96.60
2018-03-29T18:58:10.654Z,97.10
2018-03-29T19:00:39.897Z,96.30
2018-03-29T19:03:09.967Z,96.60
2018-03-29T19:05:39.219Z,97.00
2018-03-29T19:08:08.444Z,96.90
2018-03-29T19:10:38.471Z,96.90
2018-03-29T19:13:07.781Z,96.90
2018-03-29T19:15:37.092Z,97.00
2018-03-29T19:18:06.337Z,97.30
2018-03-29T19:20:35.592Z,97.80
2018-03-29T19:23:05.070Z,98.20
2018-03-29T19:25:35.344Z,99.00
2018-03-29T19:28:04.602Z,99.00
2018-03-29T19:30:33.975Z,99.00
2018-03-29T19:33:03.236Z,99.30
2018-03-29T19:35:33.352Z,99.50
2018-03-29T19:38:02.623Z,99.70
2018-03-29T19:40:31.867Z,99.90
2018-03-29T19:43:01.107Z,99.90
2018-03-29T19:45:30.365Z,99.90
2018-03-29T19:47:59.595Z,99.90
2018-03-29T19:50:29.858Z,99.90
2018-03-29T19:52:59.121Z,99.90
2018-03-29T19:55:28.375Z,99.90
2018-03-29T19:57:57.657Z,99.90
2018-03-29T20:00:27.055Z,99.90
2018-03-29T20:02:57.070Z,99.90
2018-03-29T20:05:26.333Z,99.90
2018-03-29T20:07:55.776Z,99.90
2018-03-29T20:10:25.814Z,99.90
2018-03-29T20:12:55.081Z,99.90
2018-03-29T20:15:24.306Z,99.90
2018-03-29T20:17:53.614Z,99.90
2018-03-29T20:20:23.640Z,99.90
2018-03-29T20:22:52.885Z,99.90
2018-03-29T20:25:22.186Z,99.90
2018-03-29T20:27:51.424Z,99.90
2018-03-29T20:30:20.700Z,99.90
2018-03-29T20:32:50.734Z,99.90
2018-03-29T20:35:19.964Z,99.90
2018-03-29T20:37:49.452Z,99.90
2018-03-29T20:40:18.697Z,99.90
2018-03-29T20:42:47.942Z,99.90
2018-03-29T20:45:17.186Z,99.90
2018-03-29T20:47:46.454Z,99.90
2018-03-29T20:50:15.712Z,99.90
2018-03-29T20:52:44.946Z,99.90
2018-03-29T20:55:14.217Z,99.90
2018-03-29T20:57:43.466Z,99.90
2018-03-29T21:00:12.730Z,99.90
2018-03-29T21:02:42.801Z,99.90
2018-03-29T21:05:12.069Z,99.90
2018-03-29T21:07:41.371Z,99.90
2018-03-29T21:10:10.622Z,99.90
2018-03-29T21:12:39.872Z,99.90
2018-03-29T21:15:09.161Z,99.90
2018-03-29T21:17:38.394Z,99.90
2018-03-29T21:20:08.427Z,99.90
2018-03-29T21:22:38.492Z,99.90
2018-03-29T21:25:07.784Z,99.90
2018-03-29T21:27:37.057Z,99.90
2018-03-29T21:30:06.353Z,99.90
2018-03-29T21:32:35.628Z,99.90
2018-03-29T21:35:05.645Z,99.90
2018-03-29T21:37:34.878Z,99.90
2018-03-29T21:40:04.136Z,99.90
2018-03-29T21:42:34.150Z,99.90
2018-03-29T21:45:03.444Z,99.90
2018-03-29T21:47:32.889Z,99.90
2018-03-29T21:50:02.929Z,99.90
2018-03-29T21:52:32.277Z,99.90
2018-03-29T21:55:01.536Z,99.90
2018-03-29T21:57:30.767Z,99.90
2018-03-29T22:00:00.846Z,99.90
2018-03-29T22:02:30.096Z,99.90
2018-03-29T22:05:00.131Z,99.90
2018-03-29T22:07:29.594Z,99.90
2018-03-29T22:09:59.022Z,99.90
2018-03-29T22:12:29.035Z,99.90
2018-03-29T22:14:59.881Z,99.90
2018-03-29T22:17:29.914Z,99.90
2018-03-29T22:19:59.160Z,99.90
2018-03-29T22:22:28.485Z,99.90
2018-03-29T22:24:57.715Z,99.90
2018-03-29T22:27:27.849Z,99.90
2018-03-29T22:29:58.090Z,99.90
2018-03-29T22:32:27.314Z,99.90
2018-03-29T22:34:56.605Z,99.90
2018-03-29T22:37:25.829Z,99.90
2018-03-29T22:39:55.233Z,99.90
2018-03-29T22:42:24.498Z,99.90
2018-03-29T22:44:53.764Z,99.90
2018-03-29T22:47:23.796Z,99.90
2018-03-29T22:49:53.025Z,99.90
2018-03-29T22:52:22.279Z,99.90
2018-03-29T22:54:52.316Z,99.90
2018-03-29T22:57:21.742Z,99.90
2018-03-29T22:59:50.982Z,99.90
2018-03-29T23:02:20.253Z,99.90
2018-03-29T23:04:49.493Z,99.90
2018-03-29T23:07:18.747Z,99.90
2018-03-29T23:09:47.990Z,99.90
2018-03-29T23:12:18.056Z,99.90
2018-03-29T23:14:47.302Z,99.90
2018-03-29T23:17:16.567Z,99.90
2018-03-29T23:19:45.817Z,99.90
2018-03-29T23:22:15.831Z,99.90
2018-03-29T23:24:45.110Z,99.90
2018-03-29T23:27:14.394Z,99.90
2018-03-29T23:29:43.666Z,99.90
2018-03-29T23:32:12.921Z,99.90
2018-03-29T23:34:42.254Z,99.90
2018-03-29T23:37:12.291Z,99.90
2018-03-29T23:39:41.554Z,99.90
2018-03-29T23:42:10.807Z,99.90
2018-03-29T23:44:40.049Z,99.90
2018-03-29T23:47:09.402Z,99.90
2018-03-29T23:49:38.676Z,99.90
2018-03-29T23:52:08.686Z,99.90
2018-03-29T23:54:37.990Z,99.90
2018-03-29T23:57:07.257Z,99.90
2018-03-29T23:59:36.490Z,99.90
